首页
METAR-TAF:

METAR-TAF

机场 :

上海虹桥国际机场

上海 / 虹桥, 中华人民共和国

纬度: 31-10N, 经度: 121-26E, 海拔: 7米

当前天气观测

该预报发布于44分钟前的11:30 UTC
风速4节,风向南转南东
温度 9°C
湿度 71%
气压 1023 hPa
能见度10公里或以上
1500米以下无云,无积雨云

METAR: ZSSS 181130Z 15002MPS CAVOK 09/04 Q1023 NOSIG

时间: 20:14 (12:14 UTC)

预报

该预报发布于3小时和2分钟前的09:12 UTC
预报有效从18日的 12点(UTC)到 19日的 12点(UTC)
风速6节,风向西南
能見度: 5000
轻雾

TAF: ZSSS 180912Z 1812/1912 22003MPS 5000 BR NSC TX15/1906Z TN06/1821Z

超过4000个机场的气象观测和天气预报(METAR&TAF报告)。

可查询的气象台以黄色和红色小点在地图上表示。

将鼠标移到小点上方,可查看气象台名称。

然后点击查看天气观测和预报。

如需切换地图:点击带黑十字的绿色按钮放大地图;点击带横线的绿色按钮缩小地图;或者点击绿色箭头查看邻近地区的地图。


METAR-TAF: